Time;durP1;ratioP1;P1;durP2;ratioP2;P2;SDS_P1;SDS_P2;PMS_P1;PMS_P2;Temp;Humidity;BMP_temperature;BMP_pressure;BME280_temperature;BME280_humidity;BME280_pressure;Samples;Min_cycle;Max_cycle;Signal;HPM_P1;HPM_P2
2021/12/29 07:00:46;;;;;;;81.90;6.43;;;;;;;;;;5695451;23;20056;-84
2021/12/29 07:03:13;;;;;;;110.90;7.60;;;;;;;;;;4875609;29;20414;-82
2021/12/29 07:05:40;;;;;;;98.03;7.05;;;;;;;;;;4876020;29;20056;-82
2021/12/29 07:08:07;;;;;;;71.30;6.40;;;;;;;;;;4871823;29;20037;-83
2021/12/29 07:10:34;;;;;;;95.32;7.43;;;;;;;;;;4875831;29;20100;-83
2021/12/29 07:13:01;;;;;;;97.07;7.35;;;;;;;;;;4877537;29;20077;-82
2021/12/29 07:15:27;;;;;;;53.80;6.40;;;;;;;;;;4875965;29;20053;-83
2021/12/29 07:17:54;;;;;;;72.20;6.60;;;;;;;;;;4874558;29;20079;-82
2021/12/29 07:20:20;;;;;;;66.68;6.95;;;;;;;;;;4874523;29;20049;-81
2021/12/29 07:22:47;;;;;;;86.55;8.57;;;;;;;;;;4874840;29;20040;-83
2021/12/29 07:25:14;;;;;;;76.18;6.72;;;;;;;;;;4877578;29;20081;-83
2021/12/29 07:27:40;;;;;;;102.70;7.60;;;;;;;;;;4877562;29;20091;-82
2021/12/29 07:30:08;;;;;;;88.18;7.80;;;;;;;;;;4873911;29;20121;-83
2021/12/29 07:32:59;;;;;;;103.15;7.93;;;;;;;;;;4873301;29;20052;-83
2021/12/29 07:35:26;;;;;;;93.00;8.60;;;;;;;;;;4872746;29;20505;-82
2021/12/29 07:37:53;;;;;;;104.95;8.68;;;;;;;;;;4873689;29;20486;-83
2021/12/29 07:40:19;;;;;;;105.40;9.80;;;;;;;;;;4874635;29;20514;-83
2021/12/29 07:42:49;;;;;;;110.10;10.23;;;;;;;;;;4873902;29;20057;-82
2021/12/29 07:45:18;;;;;;;131.48;9.57;;;;;;;;;;4874208;29;20064;-82
2021/12/29 07:47:47;;;;;;;96.35;9.20;;;;;;;;;;4874416;29;20059;-81
2021/12/29 07:50:15;;;;;;;108.38;8.73;;;;;;;;;;4874145;29;20037;-82
2021/12/29 07:52:56;;;;;;;96.00;8.80;;;;;;;;;;4861455;29;20045;-82
2021/12/29 07:55:23;;;;;;;92.55;10.35;;;;;;;;;;4874764;29;20488;-83
2021/12/29 07:57:50;;;;;;;98.60;10.25;;;;;;;;;;4874139;29;20442;-82
2021/12/29 08:00:16;;;;;;;95.93;11.57;;;;;;;;;;4873595;29;20506;-82
2021/12/29 08:02:44;;;;;;;88.25;11.20;;;;;;;;;;4875286;29;20430;-81
2021/12/29 08:05:12;;;;;;;94.65;11.27;;;;;;;;;;4872148;29;20414;-82
2021/12/29 08:07:45;;;;;;;90.40;12.05;;;;;;;;;;4859769;29;20072;-83
2021/12/29 08:10:12;;;;;;;110.50;11.65;;;;;;;;;;4876364;29;20118;-82
2021/12/29 08:12:39;;;;;;;77.90;11.10;;;;;;;;;;4874803;29;20080;-82
2021/12/29 08:15:06;;;;;;;97.72;12.25;;;;;;;;;;4873176;29;20053;-82
2021/12/29 08:17:33;;;;;;;91.00;11.68;;;;;;;;;;4872823;29;20053;-83
2021/12/29 08:20:00;;;;;;;100.03;11.82;;;;;;;;;;4873929;29;20124;-82
2021/12/29 08:22:27;;;;;;;95.80;11.93;;;;;;;;;;4858646;29;20045;-83
2021/12/29 08:24:54;;;;;;;92.20;10.68;;;;;;;;;;4872859;29;20073;-81
2021/12/29 08:27:21;;;;;;;67.93;9.63;;;;;;;;;;4873268;29;20526;-82
2021/12/29 08:29:48;;;;;;;73.40;8.82;;;;;;;;;;4872468;29;20499;-82
2021/12/29 08:32:15;;;;;;;58.83;7.78;;;;;;;;;;4872997;29;20048;-81
2021/12/29 08:34:42;;;;;;;70.20;8.98;;;;;;;;;;4858046;29;20041;-82
2021/12/29 08:37:09;;;;;;;87.85;8.68;;;;;;;;;;4876410;29;20116;-82
2021/12/29 08:39:35;;;;;;;72.90;10.48;;;;;;;;;;4873218;29;20510;-81
2021/12/29 08:42:02;;;;;;;89.72;8.20;;;;;;;;;;4859053;29;20438;-82
2021/12/29 08:44:28;;;;;;;94.65;12.77;;;;;;;;;;4872257;29;20053;-81
2021/12/29 08:46:55;;;;;;;91.75;13.20;;;;;;;;;;4871931;29;20114;-82
2021/12/29 08:49:22;;;;;;;83.88;9.38;;;;;;;;;;4873934;29;20107;-81
2021/12/29 08:51:49;;;;;;;96.82;10.38;;;;;;;;;;4874017;29;20104;-82
2021/12/29 08:54:16;;;;;;;97.57;8.98;;;;;;;;;;4872779;29;20204;-81
2021/12/29 08:56:42;;;;;;;81.63;8.93;;;;;;;;;;4871983;29;20053;-82
2021/12/29 08:59:10;;;;;;;85.85;9.65;;;;;;;;;;4873862;29;20045;-81
2021/12/29 09:01:36;;;;;;;82.47;8.38;;;;;;;;;;4874522;29;20121;-82
2021/12/29 09:04:07;;;;;;;76.30;8.38;;;;;;;;;;4874124;29;20521;-82
2021/12/29 09:06:34;;;;;;;111.35;11.13;;;;;;;;;;4870029;29;20056;-82
2021/12/29 09:09:01;;;;;;;88.15;10.85;;;;;;;;;;4869590;29;20546;-82
2021/12/29 09:11:30;;;;;;;89.15;9.88;;;;;;;;;;4870949;29;20057;-82
2021/12/29 09:13:57;;;;;;;103.10;12.23;;;;;;;;;;4871911;29;20596;-81
2021/12/29 09:16:24;;;;;;;101.45;9.50;;;;;;;;;;4869749;29;20506;-82
2021/12/29 09:18:51;;;;;;;105.10;11.90;;;;;;;;;;4854719;29;20105;-82
2021/12/29 09:21:18;;;;;;;94.38;9.38;;;;;;;;;;4868563;29;20136;-82
2021/12/29 09:23:45;;;;;;;88.05;9.55;;;;;;;;;;4864941;29;20144;-83
2021/12/29 09:26:14;;;;;;;98.75;11.00;;;;;;;;;;4869396;29;20049;-81
2021/12/29 09:28:42;;;;;;;102.78;8.95;;;;;;;;;;4871609;29;20604;-80
2021/12/29 09:31:10;;;;;;;116.63;9.57;;;;;;;;;;4854733;29;20065;-81
2021/12/29 09:33:38;;;;;;;104.53;10.13;;;;;;;;;;4869667;29;20502;-81
2021/12/29 09:36:04;;;;;;;111.60;10.70;;;;;;;;;;4869052;29;20049;-81
2021/12/29 09:38:35;;;;;;;115.13;10.45;;;;;;;;;;4869592;29;20056;-81
2021/12/29 09:41:03;;;;;;;122.78;9.75;;;;;;;;;;4869868;29;20439;-80
2021/12/29 09:43:31;;;;;;;115.55;10.43;;;;;;;;;;4869202;29;20058;-81
2021/12/29 09:45:58;;;;;;;105.80;10.77;;;;;;;;;;4870076;29;20049;-80
2021/12/29 09:48:25;;;;;;;113.25;11.80;;;;;;;;;;4868489;29;20471;-80
2021/12/29 09:50:52;;;;;;;104.43;10.35;;;;;;;;;;4866751;29;20049;-81
2021/12/29 09:53:20;;;;;;;132.90;12.10;;;;;;;;;;4862790;29;20083;-80
2021/12/29 09:55:47;;;;;;;133.07;15.37;;;;;;;;;;4866259;29;20053;-80
2021/12/29 09:58:16;;;;;;;104.25;11.15;;;;;;;;;;4869151;29;20060;-79
2021/12/29 10:00:54;;;;;;;129.50;12.75;;;;;;;;;;4884982;29;20490;-81
2021/12/29 10:03:22;;;;;;;119.00;13.15;;;;;;;;;;4868537;29;20064;-80
2021/12/29 10:05:57;;;;;;;127.47;15.63;;;;;;;;;;4869024;29;20086;-80
2021/12/29 10:08:28;;;;;;;142.13;13.90;;;;;;;;;;4869057;29;20092;-79
2021/12/29 10:10:58;;;;;;;137.98;13.00;;;;;;;;;;4853756;29;20053;-80
2021/12/29 10:13:29;;;;;;;140.27;15.23;;;;;;;;;;4868765;29;20077;-81
2021/12/29 10:16:05;;;;;;;125.20;12.32;;;;;;;;;;4870811;29;20124;-80
2021/12/29 10:18:33;;;;;;;152.20;14.80;;;;;;;;;;4868080;29;20053;-81
2021/12/29 10:21:04;;;;;;;134.40;14.63;;;;;;;;;;4867867;29;20463;-82
2021/12/29 10:23:36;;;;;;;125.22;12.45;;;;;;;;;;4868164;29;20107;-82
2021/12/29 10:26:07;;;;;;;138.88;13.93;;;;;;;;;;4869090;29;20154;-82
2021/12/29 10:28:35;;;;;;;133.63;13.93;;;;;;;;;;4854700;29;20073;-83
2021/12/29 10:31:11;;;;;;;149.98;13.93;;;;;;;;;;4869963;29;20737;-83
2021/12/29 10:33:43;;;;;;;141.82;14.70;;;;;;;;;;4868410;29;20045;-82
2021/12/29 10:36:26;;;;;;;140.77;13.32;;;;;;;;;;4853250;29;20105;-82
2021/12/29 10:38:55;;;;;;;154.05;16.17;;;;;;;;;;4870288;29;20057;-81
2021/12/29 10:41:29;;;;;;;133.80;14.27;;;;;;;;;;4845442;29;20057;-82
2021/12/29 10:44:02;;;;;;;140.02;14.90;;;;;;;;;;4851212;29;20144;-82
2021/12/29 10:46:33;;;;;;;148.38;15.13;;;;;;;;;;4870121;29;20056;-82
2021/12/29 10:49:04;;;;;;;151.10;13.77;;;;;;;;;;4870654;29;20101;-81
2021/12/29 10:51:38;;;;;;;157.43;13.80;;;;;;;;;;4868352;29;20345;-81
2021/12/29 10:54:11;;;;;;;135.80;14.48;;;;;;;;;;4867136;29;20061;-81
2021/12/29 10:56:41;;;;;;;143.00;13.90;;;;;;;;;;4868781;29;20060;-81
2021/12/29 10:59:23;;;;;;;140.25;15.68;;;;;;;;;;4869413;29;20089;-81
2021/12/29 11:01:51;;;;;;;141.18;13.93;;;;;;;;;;4860655;29;20049;-81
2021/12/29 11:04:19;;;;;;;144.90;14.45;;;;;;;;;;4868900;29;20654;-80
2021/12/29 11:06:50;;;;;;;155.82;14.32;;;;;;;;;;4870036;29;20133;-82
2021/12/29 11:09:25;;;;;;;150.20;14.00;;;;;;;;;;4869974;29;20060;-80
2021/12/29 11:11:52;;;;;;;148.30;14.93;;;;;;;;;;4867528;29;20096;-81
2021/12/29 11:14:24;;;;;;;174.10;14.93;;;;;;;;;;4867442;29;20160;-82
2021/12/29 11:17:09;;;;;;;163.57;15.88;;;;;;;;;;4870837;29;20521;-82
2021/12/29 11:19:38;;;;;;;187.05;15.48;;;;;;;;;;4870384;29;20053;-81
2021/12/29 11:22:23;;;;;;;;;;;;;;;;;;4871979;29;20057;-81
2021/12/29 11:24:59;;;;;;;164.07;15.48;;;;;;;;;;4870249;29;19977;-82
2021/12/29 11:27:28;;;;;;;115.95;12.05;;;;;;;;;;4868732;29;20048;-81
2021/12/29 11:29:58;;;;;;;143.15;15.85;;;;;;;;;;4870134;29;20096;-81
2021/12/29 11:32:36;;;;;;;140.63;17.40;;;;;;;;;;4869849;29;20109;-81
2021/12/29 11:35:09;;;;;;;159.10;15.98;;;;;;;;;;4870097;29;20162;-81
2021/12/29 11:37:38;;;;;;;165.77;17.88;;;;;;;;;;4871154;29;20041;-81
2021/12/29 11:40:07;;;;;;;153.23;16.25;;;;;;;;;;4873107;29;20053;-81
2021/12/29 11:42:33;;;;;;;133.43;15.20;;;;;;;;;;4870450;29;20077;-81
2021/12/29 11:45:00;;;;;;;145.77;16.65;;;;;;;;;;4869924;29;20577;-81
2021/12/29 11:47:27;;;;;;;129.02;13.25;;;;;;;;;;4871176;29;20048;-81
2021/12/29 11:49:53;;;;;;;133.07;14.65;;;;;;;;;;4858486;29;20045;-81
2021/12/29 11:52:47;;;;;;;154.30;17.02;;;;;;;;;;4875227;29;20108;-80
2021/12/29 11:55:15;;;;;;;165.52;15.82;;;;;;;;;;4875776;29;20129;-81
2021/12/29 11:57:42;;;;;;;159.80;16.42;;;;;;;;;;4874180;29;20100;-81
2021/12/29 12:00:19;;;;;;;154.73;16.05;;;;;;;;;;4873424;29;20053;-80
2021/12/29 12:02:48;;;;;;;158.60;16.58;;;;;;;;;;4873739;29;20529;-82
2021/12/29 12:05:22;;;;;;;163.88;15.93;;;;;;;;;;4873358;29;20101;-81
2021/12/29 12:07:49;;;;;;;174.95;16.25;;;;;;;;;;4860619;29;20110;-81
2021/12/29 12:10:35;;;;;;;164.68;15.75;;;;;;;;;;4876010;29;20104;-82
2021/12/29 12:13:05;;;;;;;162.55;16.27;;;;;;;;;;4874331;29;20053;-82
2021/12/29 12:15:39;;;;;;;182.82;17.92;;;;;;;;;;4873201;29;20451;-81
2021/12/29 12:18:08;;;;;;;172.82;16.60;;;;;;;;;;4873601;29;20084;-80
2021/12/29 12:20:44;;;;;;;218.70;21.27;;;;;;;;;;4873521;29;20113;-82
2021/12/29 12:23:25;;;;;;;187.50;18.70;;;;;;;;;;4873636;29;20045;-81
2021/12/29 12:25:54;;;;;;;199.32;20.42;;;;;;;;;;4843778;29;20081;-82
2021/12/29 12:28:21;;;;;;;194.52;18.00;;;;;;;;;;4876154;29;20069;-81
2021/12/29 12:30:53;;;;;;;194.13;19.20;;;;;;;;;;4875123;29;20105;-78
2021/12/29 12:33:27;;;;;;;185.73;18.17;;;;;;;;;;4872925;29;20587;-80
2021/12/29 12:35:55;;;;;;;179.27;19.05;;;;;;;;;;4871909;29;20052;-81
2021/12/29 12:38:27;;;;;;;185.38;16.60;;;;;;;;;;4871443;29;20474;-81
2021/12/29 12:41:02;;;;;;;175.82;17.83;;;;;;;;;;4873309;29;20076;-81
2021/12/29 12:43:29;;;;;;;163.75;15.85;;;;;;;;;;4875004;29;20518;-82
2021/12/29 12:45:56;;;;;;;169.75;16.42;;;;;;;;;;4874347;29;20466;-80
2021/12/29 12:48:26;;;;;;;145.57;15.25;;;;;;;;;;4872535;29;20117;-82
2021/12/29 12:50:54;;;;;;;143.80;16.50;;;;;;;;;;4873194;29;20045;-81
2021/12/29 12:53:47;;;;;;;166.27;16.95;;;;;;;;;;4873726;29;20045;-81
2021/12/29 12:56:16;;;;;;;181.77;17.80;;;;;;;;;;4870207;29;20490;-79
2021/12/29 12:58:45;;;;;;;128.52;14.68;;;;;;;;;;4871479;29;20101;-79
2021/12/29 13:01:26;;;;;;;168.13;16.00;;;;;;;;;;4870385;29;20057;-80
2021/12/29 13:04:01;;;;;;;152.32;14.65;;;;;;;;;;4875289;29;20049;-79
2021/12/29 13:06:32;;;;;;;143.48;14.48;;;;;;;;;;4872676;29;20052;-79
2021/12/29 13:09:02;;;;;;;129.23;13.40;;;;;;;;;;4871843;29;20514;-80
2021/12/29 13:11:34;;;;;;;130.20;13.75;;;;;;;;;;4871991;29;20051;-82
2021/12/29 13:14:04;;;;;;;120.97;12.75;;;;;;;;;;4871573;29;20438;-80
2021/12/29 13:16:31;;;;;;;148.45;14.55;;;;;;;;;;4874373;29;20096;-80
2021/12/29 13:18:59;;;;;;;154.23;14.40;;;;;;;;;;4872540;29;20053;-81
2021/12/29 13:21:41;;;;;;;123.30;13.93;;;;;;;;;;4872442;29;20418;-80
2021/12/29 13:24:11;;;;;;;148.15;15.30;;;;;;;;;;4870648;29;20049;-81
2021/12/29 13:26:44;;;;;;;156.82;15.40;;;;;;;;;;4871468;29;22165;-80
2021/12/29 13:29:15;;;;;;;147.00;15.15;;;;;;;;;;4871559;29;20515;-80
2021/12/29 13:32:10;;;;;;;119.53;13.55;;;;;;;;;;4861538;29;20059;-80
2021/12/29 13:34:38;;;;;;;153.57;15.45;;;;;;;;;;4871937;29;20439;-80
2021/12/29 13:37:08;;;;;;;145.25;15.27;;;;;;;;;;4872882;29;20208;-80
2021/12/29 13:39:35;;;;;;;150.60;15.25;;;;;;;;;;4870890;29;20056;-81
2021/12/29 13:42:02;;;;;;;149.05;14.18;;;;;;;;;;4872077;29;20495;-81
2021/12/29 13:44:28;;;;;;;131.98;15.80;;;;;;;;;;4871814;29;20469;-80
2021/12/29 13:46:55;;;;;;;156.27;15.35;;;;;;;;;;4871760;29;20503;-81
2021/12/29 13:49:22;;;;;;;164.90;15.77;;;;;;;;;;4874105;29;20048;-81
2021/12/29 13:51:49;;;;;;;154.40;15.88;;;;;;;;;;4873424;29;20056;-81
2021/12/29 13:54:18;;;;;;;142.15;14.68;;;;;;;;;;4870037;29;20120;-81
2021/12/29 13:56:46;;;;;;;;;;;;;;;;;;4872581;29;20061;-81
2021/12/29 13:59:12;;;;;;;123.50;13.98;;;;;;;;;;4871789;29;19923;-80
2021/12/29 14:01:47;;;;;;;111.57;12.05;;;;;;;;;;4871218;29;20058;-81
2021/12/29 14:04:19;;;;;;;98.55;11.82;;;;;;;;;;4872604;29;20052;-80
2021/12/29 14:06:47;;;;;;;104.28;12.15;;;;;;;;;;4872987;29;20557;-81
2021/12/29 14:09:14;;;;;;;112.50;11.37;;;;;;;;;;4868501;29;20057;-82
2021/12/29 14:11:41;;;;;;;142.05;13.07;;;;;;;;;;4870185;29;20361;-81
2021/12/29 14:14:10;;;;;;;147.18;15.43;;;;;;;;;;4866944;29;20041;-82
2021/12/29 14:17:01;;;;;;;177.50;15.80;;;;;;;;;;4868763;29;20057;-81
2021/12/29 14:19:29;;;;;;;176.85;15.93;;;;;;;;;;4870295;29;20049;-82
2021/12/29 14:21:57;;;;;;;185.77;15.48;;;;;;;;;;4869499;29;20124;-82
2021/12/29 14:24:25;;;;;;;193.88;24.17;;;;;;;;;;4870037;29;20061;-80
2021/12/29 14:26:57;;;;;;;226.10;16.77;;;;;;;;;;4870949;29;20045;-81
2021/12/29 14:29:34;;;;;;;192.32;17.67;;;;;;;;;;4871184;29;20053;-81
2021/12/29 14:32:03;;;;;;;169.93;15.40;;;;;;;;;;4872161;29;20049;-81
2021/12/29 14:34:46;;;;;;;186.05;31.80;;;;;;;;;;4864800;29;20057;-81
2021/12/29 14:37:15;;;;;;;144.15;14.95;;;;;;;;;;4873023;29;20422;-82
2021/12/29 14:39:42;;;;;;;157.75;14.73;;;;;;;;;;4872540;29;20068;-81
2021/12/29 14:42:12;;;;;;;165.48;15.82;;;;;;;;;;4872654;29;20514;-80
2021/12/29 14:44:48;;;;;;;145.35;15.10;;;;;;;;;;4870147;29;20140;-82
2021/12/29 14:47:16;;;;;;;129.57;14.57;;;;;;;;;;4870880;29;20044;-81
2021/12/29 14:49:44;;;;;;;158.30;17.02;;;;;;;;;;4871771;29;20088;-81
2021/12/29 14:52:15;;;;;;;157.05;16.33;;;;;;;;;;4873571;29;20857;-81
2021/12/29 14:54:51;;;;;;;133.57;14.65;;;;;;;;;;4867157;29;20079;-81
2021/12/29 14:57:23;;;;;;;144.27;14.63;;;;;;;;;;4868696;29;20212;-80
2021/12/29 14:59:52;;;;;;;158.40;17.02;;;;;;;;;;4871435;29;20048;-80
2021/12/29 15:02:23;;;;;;;153.75;15.85;;;;;;;;;;4870480;29;20057;-81
2021/12/29 15:05:18;;;;;;;159.07;15.65;;;;;;;;;;4870072;29;20923;-80
2021/12/29 15:07:48;;;;;;;118.72;11.98;;;;;;;;;;4868415;29;20077;-81
2021/12/29 15:10:18;;;;;;;128.25;12.52;;;;;;;;;;4868949;29;20045;-80
2021/12/29 15:12:49;;;;;;;121.72;13.18;;;;;;;;;;4870218;29;20041;-79
2021/12/29 15:15:36;;;;;;;156.07;14.73;;;;;;;;;;4870963;29;20049;-81
2021/12/29 15:18:05;;;;;;;138.10;14.40;;;;;;;;;;4871506;29;20151;-81
2021/12/29 15:20:37;;;;;;;;;;;;;;;;;;4872258;29;20049;-81
2021/12/29 15:23:05;;;;;;;61.08;8.45;;;;;;;;;;4872881;29;19935;-81
2021/12/29 15:25:32;;;;;;;66.07;7.63;;;;;;;;;;4890088;29;20041;-80
2021/12/29 15:28:01;;;;;;;91.30;9.85;;;;;;;;;;4890029;29;20049;-81
2021/12/29 15:30:32;;;;;;;127.97;12.38;;;;;;;;;;4872084;29;20053;-81
2021/12/29 15:33:00;;;;;;;123.53;13.65;;;;;;;;;;4873627;29;20483;-81
2021/12/29 15:35:27;;;;;;;106.30;11.55;;;;;;;;;;4856723;29;20105;-81
2021/12/29 15:37:54;;;;;;;103.15;10.90;;;;;;;;;;4874049;29;20053;-81
2021/12/29 15:40:21;;;;;;;54.78;7.68;;;;;;;;;;4859774;29;20053;-82
2021/12/29 15:42:48;;;;;;;55.05;7.32;;;;;;;;;;4874617;29;20411;-82
2021/12/29 15:45:17;;;;;;;68.70;14.60;;;;;;;;;;4871944;29;20044;-82
2021/12/29 15:47:44;;;;;;;71.95;8.88;;;;;;;;;;4866363;29;20064;-81
2021/12/29 15:50:14;;;;;;;96.45;10.13;;;;;;;;;;4870085;29;20056;-84
2021/12/29 15:52:41;;;;;;;113.25;11.18;;;;;;;;;;4871646;29;20562;-81
2021/12/29 15:55:11;;;;;;;161.05;13.70;;;;;;;;;;4844052;29;20077;-81
2021/12/29 15:57:38;;;;;;;149.83;14.03;;;;;;;;;;4869616;29;20055;-82
2021/12/29 16:00:09;;;;;;;143.70;14.95;;;;;;;;;;4870321;29;20482;-81
2021/12/29 16:02:36;;;;;;;184.00;20.23;;;;;;;;;;4870085;29;20104;-82
2021/12/29 16:05:05;;;;;;;184.38;22.23;;;;;;;;;;4869778;29;20072;-83
2021/12/29 16:07:32;;;;;;;222.93;28.52;;;;;;;;;;4871805;29;20085;-81
2021/12/29 16:09:59;;;;;;;226.18;25.80;;;;;;;;;;4871499;29;20100;-82
2021/12/29 16:12:30;;;;;;;242.65;28.75;;;;;;;;;;4871220;29;20148;-81
2021/12/29 16:14:57;;;;;;;212.55;20.35;;;;;;;;;;4870344;29;20486;-81
2021/12/29 16:17:26;;;;;;;209.48;21.48;;;;;;;;;;4868586;29;20140;-81
2021/12/29 16:19:53;;;;;;;212.93;20.52;;;;;;;;;;4869651;29;20056;-83
2021/12/29 16:22:20;;;;;;;237.48;39.85;;;;;;;;;;4849255;29;20815;-82
2021/12/29 16:24:47;;;;;;;193.68;19.75;;;;;;;;;;4871348;29;20045;-83
2021/12/29 16:27:21;;;;;;;275.10;26.17;;;;;;;;;;4861320;29;20057;-83
2021/12/29 16:29:54;;;;;;;289.45;23.85;;;;;;;;;;4859108;29;20077;-84
2021/12/29 16:32:25;;;;;;;272.90;24.27;;;;;;;;;;4855622;29;20081;-85
2021/12/29 16:34:53;;;;;;;263.20;23.95;;;;;;;;;;4855562;29;20056;-85
2021/12/29 16:37:22;;;;;;;283.37;26.03;;;;;;;;;;4852274;29;20057;-85
2021/12/29 16:39:53;;;;;;;238.05;23.55;;;;;;;;;;4869131;29;20122;-85
2021/12/29 16:42:20;;;;;;;252.45;23.70;;;;;;;;;;4853914;29;20060;-86
2021/12/29 16:44:48;;;;;;;233.15;23.30;;;;;;;;;;4870734;29;20049;-85
2021/12/29 16:47:15;;;;;;;250.80;21.17;;;;;;;;;;4870565;29;20132;-85
2021/12/29 16:49:43;;;;;;;212.85;23.95;;;;;;;;;;4861603;29;20525;-84
2021/12/29 16:52:10;;;;;;;224.68;21.05;;;;;;;;;;4870629;29;20073;-84
2021/12/29 16:54:38;;;;;;;232.25;22.55;;;;;;;;;;4863853;29;20060;-86
2021/12/29 16:57:06;;;;;;;250.00;20.97;;;;;;;;;;4869290;29;20045;-84
2021/12/29 16:59:33;;;;;;;225.43;21.00;;;;;;;;;;4885689;29;20061;-85
2021/12/29 17:02:01;;;;;;;236.88;19.80;;;;;;;;;;4864586;29;20637;-84
2021/12/29 17:04:29;;;;;;;223.88;21.60;;;;;;;;;;4859004;29;20049;-85
2021/12/29 17:06:59;;;;;;;211.75;19.27;;;;;;;;;;4852679;29;20522;-85
2021/12/29 17:09:26;;;;;;;201.88;18.52;;;;;;;;;;4865480;29;20061;-85
2021/12/29 17:11:53;;;;;;;218.07;24.08;;;;;;;;;;4850157;29;20593;-84
2021/12/29 17:14:20;;;;;;;164.45;17.50;;;;;;;;;;4870392;29;20060;-84
2021/12/29 17:16:48;;;;;;;171.82;16.55;;;;;;;;;;4854796;29;20056;-83
2021/12/29 17:19:14;;;;;;;147.77;15.18;;;;;;;;;;4859794;29;20438;-83
2021/12/29 17:21:43;;;;;;;130.00;14.45;;;;;;;;;;4858651;29;20431;-84
2021/12/29 17:24:11;;;;;;;156.02;14.95;;;;;;;;;;4860960;29;20097;-83
2021/12/29 17:26:42;;;;;;;171.82;16.73;;;;;;;;;;4873497;29;20396;-82
2021/12/29 17:29:09;;;;;;;213.10;22.40;;;;;;;;;;4857701;29;20049;-84
2021/12/29 17:31:38;;;;;;;205.95;18.30;;;;;;;;;;4856477;29;20057;-84
2021/12/29 17:34:06;;;;;;;205.18;20.38;;;;;;;;;;4859625;29;20044;-83
2021/12/29 17:36:33;;;;;;;202.60;18.90;;;;;;;;;;4842736;29;20108;-84
2021/12/29 17:39:00;;;;;;;151.93;16.23;;;;;;;;;;4860668;29;20049;-85
2021/12/29 17:41:27;;;;;;;154.02;18.08;;;;;;;;;;4857543;29;20052;-85
2021/12/29 17:43:55;;;;;;;153.82;17.95;;;;;;;;;;4858698;29;20109;-84
2021/12/29 17:46:23;;;;;;;179.50;16.70;;;;;;;;;;4854264;29;20067;-83
2021/12/29 17:48:55;;;;;;;180.98;19.02;;;;;;;;;;4866362;29;20045;-83
2021/12/29 17:51:26;;;;;;;181.57;17.85;;;;;;;;;;4861258;29;20045;-84
2021/12/29 17:53:52;;;;;;;204.82;21.60;;;;;;;;;;4857252;29;20048;-83
2021/12/29 17:56:21;;;;;;;195.43;18.33;;;;;;;;;;4860064;29;20545;-83
2021/12/29 17:58:49;;;;;;;208.93;17.65;;;;;;;;;;4866442;29;20073;-83
2021/12/29 18:01:20;;;;;;;162.75;16.85;;;;;;;;;;4856929;29;20117;-83
2021/12/29 18:03:49;;;;;;;161.68;16.70;;;;;;;;;;4868605;29;20132;-84
2021/12/29 18:06:16;;;;;;;164.70;17.27;;;;;;;;;;4864944;29;20549;-84
2021/12/29 18:08:46;;;;;;;143.70;18.73;;;;;;;;;;4851957;29;20183;-84
2021/12/29 18:11:15;;;;;;;149.15;22.02;;;;;;;;;;4875233;29;20080;-83
2021/12/29 18:13:43;;;;;;;116.35;15.07;;;;;;;;;;4859314;29;20140;-85
2021/12/29 18:16:12;;;;;;;130.17;14.20;;;;;;;;;;4855962;29;20639;-82
2021/12/29 18:18:39;;;;;;;;;;;;;;;;;;4865949;29;20135;-85
2021/12/29 18:21:06;;;;;;;130.35;13.73;;;;;;;;;;4873699;29;19991;-85
2021/12/29 18:23:33;;;;;;;120.13;14.13;;;;;;;;;;4861747;29;20132;-85
2021/12/29 18:26:02;;;;;;;134.70;13.65;;;;;;;;;;4862491;29;20049;-82
2021/12/29 18:28:28;;;;;;;124.72;11.82;;;;;;;;;;4862224;29;20700;-83
2021/12/29 18:30:55;;;;;;;133.48;13.13;;;;;;;;;;4858109;29;20447;-83
2021/12/29 18:33:22;;;;;;;143.80;14.15;;;;;;;;;;4859041;29;20049;-80
2021/12/29 18:35:49;;;;;;;164.35;17.17;;;;;;;;;;4862872;29;20468;-83
2021/12/29 18:38:16;;;;;;;167.13;15.23;;;;;;;;;;4868185;29;20048;-80
2021/12/29 18:40:42;;;;;;;180.73;16.92;;;;;;;;;;4868422;29;20418;-83
2021/12/29 18:43:09;;;;;;;206.32;18.75;;;;;;;;;;4868874;29;20522;-82
2021/12/29 18:45:36;;;;;;;178.73;18.70;;;;;;;;;;4852006;29;20053;-83
2021/12/29 18:48:04;;;;;;;181.88;19.85;;;;;;;;;;4869384;29;20091;-79
2021/12/29 18:50:31;;;;;;;211.37;20.97;;;;;;;;;;4869479;29;20117;-81
2021/12/29 18:52:59;;;;;;;193.50;19.10;;;;;;;;;;4868340;29;21158;-83
2021/12/29 18:55:26;;;;;;;224.18;19.50;;;;;;;;;;4869265;29;20072;-83
2021/12/29 18:57:53;;;;;;;226.65;18.45;;;;;;;;;;4873625;29;20057;-84
2021/12/29 19:00:20;;;;;;;202.82;18.52;;;;;;;;;;4869731;29;20053;-85
2021/12/29 19:02:47;;;;;;;192.55;17.23;;;;;;;;;;4872980;29;20124;-84
2021/12/29 19:05:17;;;;;;;194.93;15.90;;;;;;;;;;4871244;29;20125;-85
2021/12/29 19:07:46;;;;;;;176.90;17.25;;;;;;;;;;4866208;29;20049;-83
2021/12/29 19:10:13;;;;;;;201.80;17.27;;;;;;;;;;4859306;29;20053;-85
2021/12/29 19:12:43;;;;;;;180.73;17.35;;;;;;;;;;4859352;29;20132;-85
2021/12/29 19:15:10;;;;;;;196.93;18.63;;;;;;;;;;4859202;29;20080;-83
2021/12/29 19:17:39;;;;;;;187.27;17.73;;;;;;;;;;4875780;29;20061;-84
2021/12/29 19:20:09;;;;;;;192.60;16.15;;;;;;;;;;4860422;29;20046;-81
2021/12/29 19:22:36;;;;;;;173.80;16.27;;;;;;;;;;4871622;29;20045;-81
2021/12/29 19:25:04;;;;;;;178.27;16.13;;;;;;;;;;4862795;29;20439;-81
2021/12/29 19:27:30;;;;;;;167.57;17.00;;;;;;;;;;4875034;29;20101;-83
2021/12/29 19:29:57;;;;;;;190.65;19.60;;;;;;;;;;4863838;29;20518;-84
2021/12/29 19:32:24;;;;;;;182.95;22.65;;;;;;;;;;4872105;29;20117;-84
2021/12/29 19:34:51;;;;;;;190.60;18.88;;;;;;;;;;4871699;29;20049;-83
2021/12/29 19:37:17;;;;;;;204.73;22.90;;;;;;;;;;4873788;29;20109;-84
2021/12/29 19:39:45;;;;;;;184.57;20.13;;;;;;;;;;4872157;29;20084;-83
2021/12/29 19:42:15;;;;;;;198.48;20.77;;;;;;;;;;4872052;29;20557;-83
2021/12/29 19:44:46;;;;;;;197.65;25.30;;;;;;;;;;4873087;29;20053;-81
2021/12/29 19:47:16;;;;;;;179.23;29.20;;;;;;;;;;4871886;29;20079;-81
2021/12/29 19:49:47;;;;;;;175.45;22.80;;;;;;;;;;4873490;29;20057;-84
2021/12/29 19:52:15;;;;;;;251.70;80.07;;;;;;;;;;4873823;29;20049;-84
2021/12/29 19:54:43;;;;;;;177.80;25.02;;;;;;;;;;4871971;29;20053;-83
2021/12/29 19:57:10;;;;;;;232.80;49.55;;;;;;;;;;4872676;29;20081;-83
2021/12/29 19:59:37;;;;;;;188.30;41.90;;;;;;;;;;4872587;29;20049;-84
2021/12/29 20:02:04;;;;;;;176.15;19.10;;;;;;;;;;4872697;29;20059;-82
2021/12/29 20:04:31;;;;;;;175.63;22.17;;;;;;;;;;4873466;29;20052;-84
2021/12/29 20:06:59;;;;;;;163.95;17.25;;;;;;;;;;4871326;29;20041;-84
2021/12/29 20:09:26;;;;;;;189.57;36.05;;;;;;;;;;4864441;29;20053;-84
2021/12/29 20:11:53;;;;;;;196.82;43.38;;;;;;;;;;4862549;29;20072;-83
2021/12/29 20:14:20;;;;;;;166.60;27.10;;;;;;;;;;4859540;29;20529;-81
2021/12/29 20:16:47;;;;;;;168.18;23.00;;;;;;;;;;4858353;29;20049;-81
2021/12/29 20:19:15;;;;;;;207.75;61.55;;;;;;;;;;4868052;29;20049;-81
2021/12/29 20:21:43;;;;;;;180.93;24.17;;;;;;;;;;4860205;29;20053;-83
2021/12/29 20:24:10;;;;;;;155.00;18.52;;;;;;;;;;4860060;29;20105;-81
2021/12/29 20:26:38;;;;;;;172.40;21.30;;;;;;;;;;4861179;29;20049;-82
2021/12/29 20:29:04;;;;;;;159.10;27.80;;;;;;;;;;4859874;29;20057;-81
2021/12/29 20:31:34;;;;;;;147.07;25.75;;;;;;;;;;4871089;29;20080;-81
2021/12/29 20:34:03;;;;;;;206.90;62.78;;;;;;;;;;4862486;29;20518;-84
2021/12/29 20:36:30;;;;;;;208.35;67.45;;;;;;;;;;4872225;29;20108;-81
2021/12/29 20:38:57;;;;;;;169.25;20.50;;;;;;;;;;4871881;29;20071;-81
2021/12/29 20:41:23;;;;;;;223.85;70.30;;;;;;;;;;4862865;29;20073;-81
2021/12/29 20:43:50;;;;;;;137.50;18.45;;;;;;;;;;4870388;29;20045;-81
2021/12/29 20:46:16;;;;;;;149.55;15.38;;;;;;;;;;4853962;29;20172;-81
2021/12/29 20:48:43;;;;;;;131.75;15.55;;;;;;;;;;4857396;29;20053;-80
2021/12/29 20:51:10;;;;;;;154.27;22.83;;;;;;;;;;4861805;29;20045;-83
2021/12/29 20:53:37;;;;;;;193.93;47.83;;;;;;;;;;4866901;29;20056;-81
2021/12/29 20:56:05;;;;;;;163.13;36.50;;;;;;;;;;4863180;29;20085;-80
2021/12/29 20:58:31;;;;;;;129.93;14.00;;;;;;;;;;4871015;29;20080;-81
2021/12/29 21:00:58;;;;;;;138.60;18.00;;;;;;;;;;4865370;29;20829;-81
2021/12/29 21:03:25;;;;;;;120.40;12.98;;;;;;;;;;4871144;29;20049;-80
2021/12/29 21:05:52;;;;;;;156.68;20.67;;;;;;;;;;4871414;29;20069;-81
2021/12/29 21:08:19;;;;;;;150.40;24.80;;;;;;;;;;4871410;29;20470;-82
2021/12/29 21:10:46;;;;;;;149.75;15.98;;;;;;;;;;4872130;29;20483;-81
2021/12/29 21:13:12;;;;;;;135.27;25.48;;;;;;;;;;4871114;29;20087;-82
2021/12/29 21:15:40;;;;;;;139.85;17.88;;;;;;;;;;4870296;29;20053;-82
2021/12/29 21:18:06;;;;;;;139.20;14.15;;;;;;;;;;4863451;29;20116;-84
2021/12/29 21:20:33;;;;;;;134.27;15.07;;;;;;;;;;4864535;29;20053;-81